Startpagina
METAR-TAF:

METAR-TAF

Vliegvelden :

In Salah, Algerije

breedte: 27-15N, lengte: 002-31E, hoogte: 269 m

Actueel weer

Dit bericht is 48 minuten geleden gemaakt, om 07:00 UTC
Wind 20 kt uit het oosten
Temperatuur 29°C
Vochtigheid 27%
Druk 1013 hPa
Zicht: 6000 m
Lage stuifzand

METAR: DAUI 230700Z 08020KT 6000 DRSA NSC 29/08 Q1013

Tijdstip: 08:48 (07:48 UTC)

Verwachting

Dit bericht is 2 uur en het 48 minuten geleden gemaakt, om 05:00 UTC
Verwachting geldig van 23 om 06 UTC tot 24 om 06 UTC
Wind 12 kt uit het oostnoordoosten
Zicht: 8000 m
Kans 40% :
Tijdelijke
van 23 om 06 UTC tot 23 om 10 UTC
Wind 22 kt uit het oostnoordoosten
Zicht: 4000 m
Lage stuifzand

TAF: DAUI 230500Z 2306/2406 07012KT 8000 NSC PROB40 TEMPO 2306/2310 07022KT 4000 DRSA

Waarnemingen en weersverwachtingen van meer dan 4000 vliegvelden (METAR en TAF).

De beschikbare stations zijn de gele en rode punten op de kaart.

Ga met uw muis naar het station om de naam te zien.

Klik dan om waarnemingen en weersverwachtingen te zien.

kaart wijzigen: klik op de groene knoppen met een zwart kruis om in te zoomen, op de groene knop met een streepje om uit te zoomen of op de groene pijlen voor aangrenzende kaarten.


METAR-TAF: